Time;durP1;ratioP1;P1;durP2;ratioP2;P2;SDS_P1;SDS_P2;PMS_P1;PMS_P2;Temp;Humidity;BMP_temperature;BMP_pressure;BME280_temperature;BME280_humidity;BME280_pressure;Samples;Min_cycle;Max_cycle;Signal;HPM_P1;HPM_P2
2022/06/21 00:00:07;;;;;;;1.30;0.87;;;;;;;;;;5100943;28;20484;-64
2022/06/21 00:02:34;;;;;;;0.90;0.80;;;;;;;;;;5100100;28;20444;-65
2022/06/21 00:05:02;;;;;;;1.03;0.93;;;;;;;;;;5112851;28;20526;-64
2022/06/21 00:07:29;;;;;;;1.53;0.83;;;;;;;;;;5114084;28;20448;-64
2022/06/21 00:09:57;;;;;;;1.47;1.03;;;;;;;;;;5113365;28;20542;-64
2022/06/21 00:12:24;;;;;;;3.27;1.00;;;;;;;;;;5113815;28;20498;-64
2022/06/21 00:14:52;;;;;;;2.13;1.07;;;20.40;99.90;;;;;;5112896;28;20463;-64
2022/06/21 00:17:22;;;;;;;1.53;0.93;;;18.30;1.00;;;;;;5113281;28;20448;-66
2022/06/21 00:19:50;;;;;;;0.70;0.57;;;18.10;1.00;;;;;;5113427;28;20494;-69
2022/06/21 00:22:19;;;;;;;0.80;0.80;;;18.10;1.00;;;;;;5113882;28;20446;-66
2022/06/21 00:24:47;;;;;;;2.00;1.00;;;18.00;1.00;;;;;;5112916;28;20448;-66
2022/06/21 00:27:15;;;;;;;1.40;1.10;;;;;;;;;;5113420;28;20487;-66
2022/06/21 00:29:43;;;;;;;1.10;1.00;;;;;;;;;;5113216;28;20448;-66
2022/06/21 00:32:13;;;;;;;1.27;0.97;;;;;;;;;;5112349;28;20934;-64
2022/06/21 00:34:42;;;;;;;1.23;0.93;;;;;;;;;;5112591;28;20865;-64
2022/06/21 00:37:10;;;;;;;1.43;1.10;;;;;;;;;;5112199;28;20982;-64
2022/06/21 00:39:38;;;;;;;1.00;0.87;;;;;;;;;;5112747;28;20475;-65
2022/06/21 00:42:17;;;;;;;1.10;0.80;;;18.00;1.00;;;;;;5112207;28;20448;-65
2022/06/21 00:44:49;;;;;;;1.20;0.90;;;17.40;1.00;;;;;;5112824;28;20448;-66
2022/06/21 00:47:18;;;;;;;1.10;0.80;;;17.50;92.80;;;;;;5112799;28;20462;-65
2022/06/21 00:49:51;;;;;;;1.00;0.90;;;17.80;1.00;;;;;;5113092;28;20858;-66
2022/06/21 00:52:35;;;;;;;1.57;1.00;;;17.80;1.00;;;;;;5112744;28;20446;-65
2022/06/21 00:55:05;;;;;;;0.97;0.73;;;17.60;1.00;;;;;;5111311;28;20454;-65
2022/06/21 00:57:49;;;;;;;1.23;1.03;;;17.70;53.90;;;;;;5100790;28;20441;-66
2022/06/21 01:00:29;;;;;;;1.30;1.10;;;17.40;20.90;;;;;;5100830;28;20479;-65
2022/06/21 01:02:57;;;;;;;1.10;1.00;;;17.20;99.90;;;;;;5111803;28;20436;-65
2022/06/21 01:05:30;;;;;;;0.90;0.80;;;17.10;1.00;;;;;;5112492;28;20444;-65
2022/06/21 01:07:59;;;;;;;1.27;1.00;;;17.00;1.00;;;;;;5112016;28;20493;-66
2022/06/21 01:10:27;;;;;;;0.90;0.80;;;16.90;1.00;;;;;;5112232;28;20452;-65
2022/06/21 01:12:58;;;;;;;2.60;1.00;;;16.90;1.00;;;;;;5112756;28;20467;-65
2022/06/21 01:15:27;;;;;;;1.87;0.90;;;;;;;;;;5113025;28;20951;-66
2022/06/21 01:17:57;;;;;;;1.50;1.20;;;;;;;;;;5111769;28;20782;-66
2022/06/21 01:20:27;;;;;;;1.20;1.00;;;;;;;;;;5111719;28;20974;-65
2022/06/21 01:22:58;;;;;;;3.03;1.77;;;;;;;;;;5112095;28;20444;-65
2022/06/21 01:25:30;;;;;;;1.30;1.10;;;;;;;;;;5111761;28;20543;-65
2022/06/21 01:27:59;;;;;;;1.10;0.80;;;;;;;;;;5111526;28;20485;-65
2022/06/21 01:30:27;;;;;;;1.00;0.90;;;;;;;;;;5111464;28;20447;-65
2022/06/21 01:32:54;;;;;;;1.10;1.00;;;;;;;;;;5111748;28;20447;-65
2022/06/21 01:35:25;;;;;;;1.93;1.00;;;;;;;;;;5111814;28;20450;-65
2022/06/21 01:37:52;;;;;;;1.30;0.90;;;;;;;;;;5111081;28;20438;-64
2022/06/21 01:40:25;;;;;;;2.30;1.27;;;;;;;;;;5112618;28;20582;-66
2022/06/21 01:42:54;;;;;;;1.47;0.90;;;;;;;;;;5111843;28;20443;-64
2022/06/21 01:45:26;;;;;;;1.00;0.90;;;;;;;;;;5111908;28;20443;-64
2022/06/21 01:47:56;;;;;;;1.10;1.00;;;;;;;;;;5111475;28;20448;-64
2022/06/21 01:50:24;;;;;;;1.70;0.80;;;;;;;;;;5111386;28;20444;-65
2022/06/21 01:52:52;;;;;;;0.87;0.87;;;;;;;;;;5111059;28;20492;-64
2022/06/21 01:55:23;;;;;;;1.20;0.80;;;;;;;;;;5111525;28;20447;-66
2022/06/21 01:57:50;;;;;;;1.83;0.90;;;;;;;;;;5111502;28;20869;-66
2022/06/21 02:00:18;;;;;;;1.07;0.80;;;;;;;;;;5111752;28;20480;-65
2022/06/21 02:02:49;;;;;;;1.20;0.80;;;;;;;;;;5111197;28;20448;-65
2022/06/21 02:05:18;;;;;;;1.40;0.93;;;;;;;;;;5111071;28;20440;-65
2022/06/21 02:07:47;;;;;;;1.10;0.90;;;;;;;;;;5111224;28;20450;-65
2022/06/21 02:10:17;;;;;;;0.93;0.90;;;;;;;;;;5111617;28;20462;-65
2022/06/21 02:12:49;;;;;;;1.00;0.83;;;;;;;;;;5111447;28;20456;-65
2022/06/21 02:15:21;;;;;;;1.03;0.83;;;;;;;;;;5111240;28;20554;-64
2022/06/21 02:17:50;;;;;;;2.10;1.40;;;;;;;;;;5111166;28;20440;-65
2022/06/21 02:20:20;;;;;;;1.87;1.00;;;;;;;;;;5110894;28;20994;-67
2022/06/21 02:22:47;;;;;;;0.97;0.70;;;;;;;;;;5111257;28;20952;-65
2022/06/21 02:25:16;;;;;;;1.10;0.80;;;;;;;;;;5111012;28;20582;-65
2022/06/21 02:27:44;;;;;;;6.83;1.20;;;;;;;;;;5111385;28;20472;-65
2022/06/21 02:30:16;;;;;;;2.20;1.30;;;;;;;;;;5110750;28;20440;-65
2022/06/21 02:32:43;;;;;;;0.80;0.80;;;;;;;;;;5111206;28;20798;-65
2022/06/21 02:35:18;;;;;;;1.70;1.40;;;;;;;;;;5105645;28;20771;-65
2022/06/21 02:37:46;;;;;;;1.20;0.77;;;;;;;;;;5111162;28;20452;-65
2022/06/21 02:40:18;;;;;;;2.37;0.90;;;;;;;;;;5110221;28;20483;-66
2022/06/21 02:42:46;;;;;;;1.43;0.90;;;;;;;;;;5111384;28;20518;-65
2022/06/21 02:45:20;;;;;;;1.30;1.03;;;;;;;;;;5110480;28;20447;-65
2022/06/21 02:47:50;;;;;;;1.97;1.10;;;;;;;;;;5111066;28;20444;-65
2022/06/21 02:50:27;;;;;;;0.83;0.83;;;;;;;;;;5111180;28;20448;-65
2022/06/21 02:52:55;;;;;;;1.03;0.93;;;;;;;;;;5110593;28;20436;-66
2022/06/21 02:55:27;;;;;;;1.87;1.13;;;;;;;;;;5110653;28;20464;-66
2022/06/21 02:57:57;;;;;;;1.03;0.90;;;;;;;;;;5109550;28;20440;-65
2022/06/21 03:00:25;;;;;;;0.97;0.77;;;;;;;;;;5110815;28;20460;-65
2022/06/21 03:02:53;;;;;;;1.00;0.90;;;;;;;;;;5109875;28;20447;-66
2022/06/21 03:05:22;;;;;;;1.27;1.13;;;;;;;;;;5113098;28;20454;-66
2022/06/21 03:07:53;;;;;;;1.60;0.90;;;;;;;;;;5110898;28;20451;-69
2022/06/21 03:10:22;;;;;;;0.97;0.90;;;;;;;;;;5110780;28;20443;-65
2022/06/21 03:12:50;;;;;;;1.13;1.00;;;;;;;;;;5110455;28;20459;-70
2022/06/21 03:15:17;;;;;;;1.00;0.90;;;;;;;;;;5110310;28;20939;-65
2022/06/21 03:17:47;;;;;;;1.70;1.00;;;;;;;;;;5110767;28;20868;-65
2022/06/21 03:20:17;;;;;;;2.27;1.10;;;;;;;;;;5099050;28;21182;-64
2022/06/21 03:22:45;;;;;;;1.20;1.10;;;;;;;;;;5111116;28;20457;-65
2022/06/21 03:25:20;;;;;;;1.20;1.00;;;;;;;;;;5108972;28;20930;-64
2022/06/21 03:27:52;;;;;;;0.90;0.73;;;;;;;;;;5098851;28;20493;-65
2022/06/21 03:30:20;;;;;;;1.80;1.20;;;;;;;;;;5114642;28;20575;-67
2022/06/21 03:32:47;;;;;;;1.10;1.00;;;;;;;;;;5114706;28;20450;-65
2022/06/21 03:35:15;;;;;;;1.63;1.00;;;;;;;;;;5113755;28;20450;-64
2022/06/21 03:37:44;;;;;;;1.20;1.03;;;;;;;;;;5114136;28;20504;-65
2022/06/21 03:42:58;;;;;;;1.70;1.20;;;;;;;;;;5113914;28;20415;-64
2022/06/21 03:45:29;;;;;;;1.07;0.97;;;;;;;;;;5100592;28;20460;-63
2022/06/21 03:47:59;;;;;;;2.60;1.37;;;;;;;;;;5113909;28;20449;-66
2022/06/21 03:50:29;;;;;;;1.17;1.07;;;;;;;;;;5114470;28;20470;-66
2022/06/21 03:52:59;;;;;;;1.73;1.17;;;;;;;;;;5113681;28;20936;-66
2022/06/21 03:55:34;;;;;;;1.80;1.00;;;;;;;;;;5114002;28;20460;-64
2022/06/21 03:58:04;;;;;;;3.13;1.10;;;;;;;;;;5111661;28;20801;-65
2022/06/21 04:00:34;;;;;;;0.80;0.70;;;;;;;;;;5112533;28;20978;-68
2022/06/21 04:03:05;;;;;;;1.10;1.00;;;;;;;;;;5101005;28;20450;-66
2022/06/21 04:05:34;;;;;;;1.33;1.23;;;;;;;;;;5113511;28;20445;-67
2022/06/21 04:08:02;;;;;;;1.50;0.97;;;;;;;;;;5113634;28;20441;-67
2022/06/21 04:10:33;;;;;;;1.30;1.20;;;;;;;;;;5114058;28;20453;-67
2022/06/21 04:13:03;;;;;;;2.30;1.13;;;;;;;;;;5112554;28;20536;-66
2022/06/21 04:15:34;;;;;;;1.80;1.57;;;;;;;;;;5113630;28;20465;-68
2022/06/21 04:18:03;;;;;;;1.43;1.03;;;;;;;;;;5113342;28;20477;-65
2022/06/21 04:20:35;;;;;;;1.60;1.37;;;;;;;;;;5113466;28;20487;-64
2022/06/21 04:23:04;;;;;;;1.30;0.97;;;;;;;;;;5109466;28;20768;-66
2022/06/21 04:25:34;;;;;;;1.77;1.20;;;;;;;;;;5113078;28;20933;-65
2022/06/21 04:28:04;;;;;;;1.40;1.07;;;;;;;;;;5112903;28;20466;-65
2022/06/21 04:30:36;;;;;;;1.70;1.00;;;;;;;;;;5113803;28;20454;-66
2022/06/21 04:33:08;;;;;;;1.20;1.10;;;;;;;;;;5112563;28;21030;-66
2022/06/21 04:35:36;;;;;;;1.10;0.90;;;;;;;;;;5113489;28;20462;-65
2022/06/21 04:38:06;;;;;;;1.20;1.00;;;;;;;;;;5112819;28;20446;-65
2022/06/21 04:40:35;;;;;;;2.77;1.30;;;;;;;;;;5112840;28;20574;-67
2022/06/21 04:43:04;;;;;;;1.20;0.90;;;;;;;;;;5112532;28;20450;-66
2022/06/21 04:45:36;;;;;;;1.63;1.17;;;;;;;;;;5113518;28;20448;-66
2022/06/21 04:48:12;;;;;;;2.13;1.30;;;;;;;;;;5112918;28;20535;-66
2022/06/21 04:50:42;;;;;;;1.13;0.90;;;;;;;;;;5113332;28;20478;-66
2022/06/21 04:53:14;;;;;;;2.77;1.00;;;;;;;;;;5112248;28;20662;-66
2022/06/21 04:55:47;;;;;;;1.80;1.40;;;;;;;;;;5113279;28;20513;-67
2022/06/21 04:58:15;;;;;;;1.30;1.20;;;;;;;;;;5113338;28;20436;-66
2022/06/21 05:00:43;;;;;;;2.07;1.50;;;;;;;;;;5113191;28;20487;-67
2022/06/21 05:03:17;;;;;;;1.03;0.93;;;;;;;;;;5112154;28;20474;-66
2022/06/21 05:05:44;;;;;;;2.13;1.20;;;;;;;;;;5112874;28;20436;-66
2022/06/21 05:08:14;;;;;;;3.30;1.50;;;;;;;;;;5112448;28;20444;-66
2022/06/21 05:10:44;;;;;;;1.50;1.17;;;;;;;;;;5112733;28;20536;-66
2022/06/21 05:13:14;;;;;;;2.00;1.40;;;;;;;;;;5111794;28;20458;-66
2022/06/21 05:15:43;;;;;;;1.30;1.00;;;;;;;;;;5112795;28;20440;-65
2022/06/21 05:18:14;;;;;;;5.63;1.07;;;;;;;;;;5112376;28;20455;-66
2022/06/21 05:20:45;;;;;;;2.30;1.20;;;;;;;;;;5112624;28;20472;-66
2022/06/21 05:23:12;;;;;;;2.50;1.47;;;;;;;;;;5111688;28;20444;-66
2022/06/21 05:25:41;;;;;;;1.40;1.23;;;;;;;;;;5112425;28;20464;-66
2022/06/21 05:28:13;;;;;;;1.50;1.23;;;;;;;;;;5112006;28;20479;-66
2022/06/21 05:30:42;;;;;;;3.50;1.20;;;;;;;;;;5112891;28;20431;-66
2022/06/21 05:33:14;;;;;;;2.10;1.50;;;;;;;;;;5111431;28;20447;-66
2022/06/21 05:35:42;;;;;;;2.23;1.20;;;;;;;;;;5112494;28;20496;-66
2022/06/21 05:38:11;;;;;;;1.30;1.17;;;;;;;;;;5111543;28;20652;-66
2022/06/21 05:40:41;;;;;;;4.13;1.33;;;;;;;;;;5111712;28;20590;-67
2022/06/21 05:43:12;;;;;;;2.13;1.10;;;;;;;;;;5111004;28;20919;-66
2022/06/21 05:45:39;;;;;;;1.77;1.00;;;;;;;;;;5112224;28;20562;-67
2022/06/21 05:48:10;;;;;;;3.60;1.30;;;;;;;;;;5111683;28;20462;-69
2022/06/21 05:50:38;;;;;;;2.87;1.30;;;;;;;;;;5111420;28;20452;-67
2022/06/21 05:53:09;;;;;;;1.40;1.00;;;;;;;;;;5111296;28;20448;-65
2022/06/21 05:55:38;;;;;;;3.23;1.57;;;;;;;;;;5112050;28;20455;-65
2022/06/21 05:58:07;;;;;;;3.27;1.50;;;;;;;;;;5111455;28;20448;-65
2022/06/21 06:00:38;;;;;;;1.23;1.00;;;;;;;;;;5111629;28;20480;-66
2022/06/21 06:03:09;;;;;;;1.37;1.10;;;;;;;;;;5110651;28;20444;-65
2022/06/21 06:05:37;;;;;;;1.80;1.00;;;;;;;;;;5111602;28;20447;-66
2022/06/21 06:08:08;;;;;;;1.10;1.00;;;;;;;;;;5111195;28;20444;-65
2022/06/21 06:10:35;;;;;;;1.83;1.37;;;;;;;;;;5111571;28;20456;-65
2022/06/21 06:13:06;;;;;;;2.00;1.27;;;;;;;;;;5111135;28;20456;-65
2022/06/21 06:15:35;;;;;;;1.10;1.00;;;;;;;;;;5111977;28;20443;-66
2022/06/21 06:18:05;;;;;;;2.17;1.57;;;;;;;;;;5110946;28;20456;-66
2022/06/21 06:20:33;;;;;;;1.50;1.40;;;;;;;;;;5111171;28;20482;-66
2022/06/21 06:23:03;;;;;;;1.20;1.00;;;16.70;99.90;;;;;;5110639;28;20448;-66
2022/06/21 06:25:35;;;;;;;1.17;1.00;;;18.40;99.90;;;;;;5111192;28;20466;-66
2022/06/21 06:28:09;;;;;;;3.23;1.63;;;18.40;99.90;;;;;;5111132;28;20554;-66
2022/06/21 06:30:44;;;;;;;3.90;1.57;;;18.50;99.90;;;;;;5111280;28;20524;-66
2022/06/21 06:33:17;;;;;;;1.10;0.97;;;18.70;99.90;;;;;;5110134;28;20534;-66
2022/06/21 06:35:46;;;;;;;1.60;1.10;;;18.80;99.90;;;;;;5111003;28;20793;-66
2022/06/21 06:38:15;;;;;;;1.20;1.10;;;18.80;99.90;;;;;;5110693;28;20446;-67
2022/06/21 06:40:48;;;;;;;1.30;1.20;;;19.10;99.90;;;;;;5111325;28;20917;-66
2022/06/21 06:43:21;;;;;;;4.33;1.40;;;19.20;99.90;;;;;;5111097;28;20447;-66
2022/06/21 06:45:49;;;;;;;1.30;0.93;;;19.20;99.90;;;;;;5111323;28;20444;-66
2022/06/21 06:48:23;;;;;;;2.20;1.77;;;19.10;99.90;;;;;;5111324;28;20448;-66
2022/06/21 06:50:55;;;;;;;2.47;1.50;;;19.20;99.90;;;;;;5110609;28;20503;-65
2022/06/21 06:53:29;;;;;;;1.70;1.60;;;19.20;99.90;;;;;;5110596;28;20439;-67
2022/06/21 06:56:01;;;;;;;7.90;1.77;;;19.40;99.90;;;;;;5110592;28;20930;-68
2022/06/21 06:58:34;;;;;;;1.60;1.30;;;19.50;99.90;;;;;;5111157;28;20467;-66
2022/06/21 07:01:05;;;;;;;1.23;1.13;;;19.30;99.90;;;;;;5110175;28;21045;-66
2022/06/21 07:03:36;;;;;;;1.80;1.70;;;19.20;99.90;;;;;;5114056;28;20444;-65
2022/06/21 07:06:07;;;;;;;2.70;1.30;;;19.60;99.90;;;;;;5114712;28;20439;-65
2022/06/21 07:08:40;;;;;;;2.60;1.27;;;19.40;99.90;;;;;;5115570;28;20466;-66
2022/06/21 07:11:16;;;;;;;1.83;1.30;;;19.40;99.90;;;;;;5114458;28;20449;-66
2022/06/21 07:13:44;;;;;;;1.20;1.10;;;19.60;99.90;;;;;;5115601;28;20496;-67
2022/06/21 07:16:15;;;;;;;2.63;1.23;;;19.50;99.90;;;;;;5114502;28;20473;-65
2022/06/21 07:18:45;;;;;;;1.50;1.30;;;;;;;;;;5115307;27;20541;-65
2022/06/21 07:21:13;;;;;;;3.93;1.43;;;;;;;;;;5106730;28;20530;-66
2022/06/21 07:23:41;;;;;;;2.50;1.40;;;;;;;;;;5108901;28;20535;-65
2022/06/21 07:26:12;;;;;;;2.30;1.20;;;;;;;;;;5113904;28;20466;-67
2022/06/21 07:28:42;;;;;;;2.90;1.20;;;;;;;;;;5114379;28;20574;-65
2022/06/21 07:31:11;;;;;;;3.53;1.30;;;;;;;;;;5114040;28;20490;-67
2022/06/21 07:33:41;;;;;;;1.67;1.07;;;;;;;;;;5114668;28;20448;-65
2022/06/21 07:36:09;;;;;;;2.10;1.10;;;;;;;;;;5114172;28;20516;-65
2022/06/21 07:38:40;;;;;;;1.50;1.20;;;;;;;;;;5114271;28;20452;-65
2022/06/21 07:41:11;;;;;;;1.30;1.20;;;;;;;;;;5113912;28;20471;-66
2022/06/21 07:43:40;;;;;;;2.40;1.67;;;;;;;;;;5114600;28;20809;-66
2022/06/21 07:46:10;;;;;;;1.27;1.17;;;;;;;;;;5113634;28;20447;-65
2022/06/21 07:48:40;;;;;;;1.33;1.10;;;;;;;;;;5114444;28;20471;-66
2022/06/21 07:51:09;;;;;;;2.70;1.80;;;;;;;;;;5113443;28;20458;-66
2022/06/21 07:53:39;;;;;;;3.40;1.50;;;;;;;;;;5114020;28;20448;-66
2022/06/21 07:56:08;;;;;;;2.90;1.20;;;;;;;;;;5113848;28;20455;-65
2022/06/21 07:58:39;;;;;;;1.63;1.20;;;;;;;;;;5114332;28;20450;-65
2022/06/21 08:06:43;;;;;;;3.60;2.10;;;;;;;;;;5113295;28;20415;-66
2022/06/21 08:09:16;;;;;;;1.40;1.17;;;;;;;;;;5113221;28;20540;-66
2022/06/21 08:11:44;;;;;;;2.70;1.90;;;;;;;;;;5113031;28;20943;-67
2022/06/21 08:14:12;;;;;;;2.00;1.47;;;;;;;;;;5112475;28;20440;-65
2022/06/21 08:16:43;;;;;;;2.10;1.47;;;;;;;;;;5114048;28;20458;-66
2022/06/21 08:19:13;;;;;;;1.50;1.27;;;;;;;;;;5112905;28;20556;-66
2022/06/21 08:21:43;;;;;;;1.43;1.13;;;;;;;;;;5113034;28;20981;-66
2022/06/21 08:24:13;;;;;;;1.30;1.20;;;;;;;;;;5113446;28;20458;-66
2022/06/21 08:26:43;;;;;;;2.50;1.33;;;;;;;;;;5113181;28;20460;-66
2022/06/21 08:29:16;;;;;;;2.07;1.10;;;;;;;;;;5099574;28;20887;-66
2022/06/21 08:31:45;;;;;;;1.13;0.90;;;;;;;;;;5112829;28;21046;-66
2022/06/21 08:34:15;;;;;;;2.70;1.20;;;;;;;;;;5113086;28;20446;-66
2022/06/21 08:36:44;;;;;;;1.23;1.10;;;;;;;;;;5113177;28;20444;-66
2022/06/21 08:39:15;;;;;;;2.90;2.60;;;;;;;;;;5113070;28;20818;-67
2022/06/21 08:41:59;;;;;;;2.60;1.83;;;;;;;;;;5112518;28;20567;-66
2022/06/21 08:44:50;;;;;;;6.23;1.80;;;;;;;;;;5113180;28;20957;-66
2022/06/21 08:47:36;;;;;;;2.30;1.47;;;;;;;;;;5082448;28;20873;-66
2022/06/21 08:50:15;;;;;;;2.00;1.00;;;;;;;;;;5112852;28;20458;-65
2022/06/21 08:52:52;;;;;;;2.43;1.40;;;;;;;;;;5112654;28;20891;-65
2022/06/21 08:55:22;;;;;;;5.03;1.57;;;;;;;;;;5113189;28;20443;-68
2022/06/21 08:57:57;;;;;;;1.80;1.43;;;;;;;;;;5113269;28;20456;-71
2022/06/21 09:00:33;;;;;;;1.50;1.20;;;;;;;;;;5113274;28;20436;-66
2022/06/21 09:03:11;;;;;;;1.93;1.60;;;;;;;;;;5111799;28;20450;-67
2022/06/21 09:05:47;;;;;;;3.27;1.87;;;;;;;;;;5112981;28;20794;-65
2022/06/21 09:08:30;;;;;;;5.60;1.57;;;;;;;;;;5100497;28;20436;-66
2022/06/21 09:11:05;;;;;;;5.90;1.50;;;;;;;;;;5109188;28;20472;-65
2022/06/21 09:13:52;;;;;;;3.50;1.80;;;;;;;;;;5112636;28;20922;-67
2022/06/21 09:16:20;;;;;;;1.90;1.70;;;;;;;;;;5113070;28;20459;-67
2022/06/21 09:18:54;;;;;;;3.20;1.50;;;;;;;;;;5112925;28;20444;-67
2022/06/21 09:21:26;;;;;;;1.70;1.37;;;;;;;;;;5112529;28;20876;-67
2022/06/21 09:23:58;;;;;;;2.60;1.70;;;;;;;;;;5111931;28;21004;-66
2022/06/21 09:26:30;;;;;;;2.93;1.50;;;;;;;;;;5112088;28;20455;-67
2022/06/21 09:29:01;;;;;;;1.30;1.10;;;;;;;;;;5071448;28;20441;-67
2022/06/21 09:31:35;;;;;;;1.50;1.40;;;;;;;;;;5071481;28;20441;-67
2022/06/21 09:34:05;;;;;;;2.40;1.73;;;;;;;;;;5071088;28;20438;-66
2022/06/21 09:36:37;;;;;;;2.10;1.77;;;;;;;;;;5071846;28;20441;-67
2022/06/21 09:39:14;;;;;;;1.77;1.37;;;;;;;;;;5071333;28;20438;-66
2022/06/21 09:41:45;;;;;;;1.73;1.63;;;;;;;;;;5070996;28;20527;-66
2022/06/21 09:44:15;;;;;;;1.83;1.40;;;;;;;;;;5070884;28;20914;-66
2022/06/21 09:46:46;;;;;;;1.83;1.27;;;;;;;;;;5071413;28;20446;-66
2022/06/21 09:49:19;;;;;;;3.00;1.57;;;;;;;;;;5070899;28;20453;-66
2022/06/21 09:51:52;;;;;;;1.90;1.20;;;;;;;;;;5071275;28;20457;-67
2022/06/21 09:54:27;;;;;;;3.33;1.50;;;;;;;;;;5071632;28;20464;-67
2022/06/21 09:56:56;;;;;;;2.83;1.50;;;;;;;;;;5071013;28;20461;-67
2022/06/21 09:59:27;;;;;;;1.47;1.37;;;;;;;;;;5071222;28;20452;-67
2022/06/21 10:01:59;;;;;;;4.20;2.03;;;;;;;;;;5070165;28;20480;-67
2022/06/21 10:04:32;;;;;;;2.30;1.27;;;;;;;;;;5068315;28;20485;-66
2022/06/21 10:07:05;;;;;;;2.40;1.70;;;;;;;;;;5070793;28;20452;-67
2022/06/21 10:09:40;;;;;;;1.67;1.40;;;;;;;;;;5071172;28;20536;-67
2022/06/21 10:12:13;;;;;;;1.70;1.60;;;;;;;;;;5069872;28;20506;-67
2022/06/21 10:14:59;;;;;;;1.57;1.30;;;;;;;;;;5058573;28;20437;-67
2022/06/21 10:17:32;;;;;;;1.90;1.70;;;;;;;;;;5040488;28;20889;-67
2022/06/21 10:20:07;;;;;;;1.63;1.53;;;;;;;;;;5070614;28;20779;-67
2022/06/21 10:22:39;;;;;;;2.17;1.40;;;;;;;;;;5070627;28;20508;-67
2022/06/21 10:25:15;;;;;;;1.90;1.70;;;;;;;;;;5070499;28;20446;-66
2022/06/21 10:27:52;;;;;;;5.90;1.60;;;;;;;;;;5090646;28;20471;-67
2022/06/21 10:30:28;;;;;;;1.43;1.30;;;;;;;;;;5111676;28;20436;-67
2022/06/21 10:33:02;;;;;;;1.90;1.33;;;;;;;;;;5110660;28;20458;-67
2022/06/21 10:35:39;;;;;;;2.10;1.90;;;;;;;;;;5111343;28;20452;-67
2022/06/21 10:38:17;;;;;;;2.30;2.10;;;;;;;;;;5110498;28;20480;-66
2022/06/21 10:40:48;;;;;;;3.87;1.53;;;;;;;;;;5111282;28;20444;-67
2022/06/21 10:43:33;;;;;;;3.17;2.00;;;;;;;;;;5111570;28;20475;-66
2022/06/21 10:46:02;;;;;;;2.23;1.23;;;;;;;;;;5110508;28;20435;-66
2022/06/21 10:48:41;;;;;;;2.60;1.50;;;;;;;;;;5111293;28;20444;-66
2022/06/21 10:51:13;;;;;;;1.60;1.30;;;;;;;;;;5110172;28;20461;-66
2022/06/21 10:53:48;;;;;;;1.83;1.70;;;;;;;;;;5111118;28;20447;-66
2022/06/21 10:59:13;;;;;;;3.73;2.17;;;;;;;;;;5110462;28;20426;-67
2022/06/21 11:01:43;;;;;;;1.57;1.47;;;;;;;;;;5110677;28;20475;-67
2022/06/21 11:04:29;;;;;;;2.20;2.00;;;;;;;;;;5110504;28;20475;-66
2022/06/21 11:07:00;;;;;;;5.00;1.57;;;;;;;;;;5110529;28;20932;-67
2022/06/21 11:09:31;;;;;;;1.97;1.70;;;;;;;;;;5111180;28;20452;-67
2022/06/21 11:12:52;;;;;;;3.70;2.23;;;;;;;;;;5109885;28;20456;-67
2022/06/21 11:14:53;;;;;;;1.93;1.73;;;;;;;;;;5098498;28;20436;-67
2022/06/21 11:17:26;;;;;;;5.93;5.43;;;;;;;;;;5110791;28;20446;-68
2022/06/21 11:19:57;;;;;;;1.83;1.67;;;;;;;;;;5110151;28;20446;-66
2022/06/21 11:22:28;;;;;;;2.37;2.17;;;;;;;;;;5110600;28;20472;-67
2022/06/21 11:25:01;;;;;;;2.20;2.00;;;;;;;;;;5110277;28;20537;-67
2022/06/21 11:27:33;;;;;;;1.90;1.80;;;;;;;;;;5110467;28;20474;-67
2022/06/21 11:30:04;;;;;;;1.90;1.57;;;;;;;;;;5110113;28;20444;-67
2022/06/21 11:32:34;;;;;;;2.40;2.03;;;;;;;;;;5110300;28;20981;-67
2022/06/21 11:35:07;;;;;;;3.73;1.80;;;;;;;;;;5110152;28;20476;-67
2022/06/21 11:37:41;;;;;;;3.07;2.20;;;;;;;;;;5111086;28;20443;-67
2022/06/21 11:40:26;;;;;;;2.40;2.20;;;;;;;;;;5109988;28;20922;-67
2022/06/21 11:42:53;;;;;;;1.83;1.67;;;;;;;;;;5109892;28;20494;-67
2022/06/21 11:45:51;;;;;;;2.10;1.90;;;;;;;;;;5110495;28;20444;-66
2022/06/21 11:48:37;;;;;;;3.27;2.20;;;;;;;;;;5111006;27;20424;-67
2022/06/21 11:51:11;;;;;;;2.73;2.30;;;;;;;;;;5113745;28;20450;-67
2022/06/21 11:53:46;;;;;;;2.60;2.00;;;;;;;;;;5102205;28;20526;-67
2022/06/21 11:56:19;;;;;;;2.00;1.80;;;;;;;;;;5113782;28;20941;-67
2022/06/21 11:58:49;;;;;;;2.40;1.73;;;;;;;;;;5114486;28;20447;-67
2022/06/21 12:01:19;;;;;;;1.80;1.70;;;;;;;;;;5114352;28;20457;-67
2022/06/21 12:03:52;;;;;;;2.43;1.73;;;;;;;;;;5114087;28;20471;-66
2022/06/21 12:06:21;;;;;;;2.37;2.03;;;;;;;;;;5113504;28;20450;-67
2022/06/21 12:08:54;;;;;;;2.57;2.37;;;;;;;;;;5113985;28;20450;-67
2022/06/21 12:11:24;;;;;;;2.57;2.00;;;;;;;;;;5113471;28;20447;-67
2022/06/21 12:13:57;;;;;;;1.70;1.57;;;;;;;;;;5113627;28;20798;-67
2022/06/21 12:16:30;;;;;;;3.23;1.97;;;;;;;;;;5113954;28;20923;-68
2022/06/21 12:19:01;;;;;;;2.10;1.93;;;;;;;;;;5113511;28;20518;-67
2022/06/21 12:21:29;;;;;;;3.77;1.93;;;;;;;;;;5113620;28;20436;-67
2022/06/21 12:23:57;;;;;;;2.57;2.17;;;;;;;;;;5113348;28;20446;-67
2022/06/21 12:26:26;;;;;;;2.50;2.30;;;;;;;;;;5113298;28;20895;-67
2022/06/21 12:28:54;;;;;;;3.20;2.60;;;;;;;;;;5113268;28;20467;-67
2022/06/21 12:31:23;;;;;;;2.60;2.40;;;;;;;;;;5113435;28;20449;-67
2022/06/21 12:33:52;;;;;;;2.27;2.07;;;;;;;;;;5113068;28;20455;-68
2022/06/21 12:36:26;;;;;;;2.70;2.50;;;;;;;;;;5113715;28;20443;-69
2022/06/21 12:38:55;;;;;;;2.40;2.27;;;;;;;;;;5113233;28;20443;-67
2022/06/21 12:41:26;;;;;;;2.90;2.63;;;;;;;;;;5112719;28;20444;-68
2022/06/21 12:44:00;;;;;;;2.87;2.63;;;;;;;;;;5112734;28;20470;-68
2022/06/21 12:46:30;;;;;;;2.70;2.50;;;;;;;;;;5113501;28;20442;-67
2022/06/21 12:49:21;;;;;;;2.53;2.33;;;;;;;;;;5112830;28;20447;-66
2022/06/21 12:51:53;;;;;;;2.40;2.20;;;;;;;;;;5037420;28;20448;-66
2022/06/21 12:54:30;;;;;;;2.73;2.30;;;;;;;;;;5112924;28;20546;-67
2022/06/21 12:57:08;;;;;;;2.93;2.47;;;;;;;;;;5112968;28;20542;-67
2022/06/21 12:59:42;;;;;;;2.37;2.17;;;;;;;;;;5112914;28;20443;-67
2022/06/21 13:02:16;;;;;;;3.03;2.73;;;;;;;;;;5112276;28;20775;-66
2022/06/21 13:04:51;;;;;;;2.73;2.53;;;;;;;;;;5112997;28;20439;-66
2022/06/21 13:07:35;;;;;;;2.37;2.17;;;;;;;;;;5113030;28;20447;-66
2022/06/21 13:10:11;;;;;;;2.57;2.37;;;;;;;;;;5101566;28;20783;-67
2022/06/21 13:12:48;;;;;;;3.03;2.47;;;;;;;;;;5112066;28;20455;-65
2022/06/21 13:15:23;;;;;;;3.20;2.33;;;;;;;;;;5113188;28;20477;-66
2022/06/21 13:18:11;;;;;;;3.87;2.30;;;;;;;;;;5111941;28;20931;-67
2022/06/21 13:20:44;;;;;;;3.13;2.37;;;;;;;;;;5112367;28;20443;-67
2022/06/21 13:23:16;;;;;;;2.70;2.50;;;;;;;;;;5112291;28;20536;-67
2022/06/21 13:25:52;;;;;;;3.00;2.37;;;;;;;;;;5112249;28;20456;-67
2022/06/21 13:28:31;;;;;;;2.73;2.50;;;;;;;;;;5112644;28;20482;-67
2022/06/21 13:31:02;;;;;;;2.50;2.30;;;;;;;;;;5111778;28;20786;-66
2022/06/21 13:33:30;;;;;;;3.47;3.17;;;;;;;;;;5112180;28;20539;-66
2022/06/21 13:36:02;;;;;;;3.90;2.63;;;;;;;;;;5111624;28;20444;-66
2022/06/21 13:38:33;;;;;;;3.13;2.23;;;;;;;;;;5112427;28;20629;-66
2022/06/21 13:41:04;;;;;;;3.57;3.27;;;;;;;;;;5111496;28;20451;-66
2022/06/21 13:43:35;;;;;;;2.80;2.37;;;;;;;;;;5111873;28;20467;-67
2022/06/21 13:46:13;;;;;;;2.63;2.43;;;;;;;;;;5111842;28;20444;-67
2022/06/21 13:48:44;;;;;;;3.03;2.10;;;;;;;;;;5112303;28;20808;-66
2022/06/21 13:51:23;;;;;;;2.90;2.70;;;;;;;;;;5111165;28;20454;-67
2022/06/21 13:53:52;;;;;;;3.20;2.53;;;;;;;;;;5111766;28;20475;-67
2022/06/21 13:56:22;;;;;;;3.33;3.13;;;;;;;;;;5111857;28;20546;-69
2022/06/21 13:58:54;;;;;;;3.27;2.97;;;;;;;;;;5111713;28;20448;-73
2022/06/21 14:01:26;;;;;;;2.90;2.70;;;;;;;;;;5111344;28;20447;-67
2022/06/21 14:04:02;;;;;;;7.53;2.60;;;;;;;;;;5111094;28;20509;-67
2022/06/21 14:06:33;;;;;;;3.00;2.70;;;;;;;;;;5112123;28;20215;-66
2022/06/21 14:09:03;;;;;;;3.03;2.50;;;;;;;;;;5111352;28;20201;-67
2022/06/21 14:11:33;;;;;;;2.75;2.55;;;;;;;;;;5110667;28;20193;-67
2022/06/21 14:14:03;;;;;;;2.90;2.70;;;;;;;;;;5111147;28;20197;-67
2022/06/21 14:16:37;;;;;;;3.25;2.78;;;;;;;;;;5111932;28;20201;-67
2022/06/21 14:19:07;;;;;;;3.05;2.80;;;;;;;;;;5111261;28;20280;-67
2022/06/21 14:21:40;;;;;;;3.33;3.08;;;;;;;;;;5111279;28;20197;-67
2022/06/21 14:24:11;;;;;;;4.20;2.78;;;;;;;;;;5110752;28;20209;-67
2022/06/21 14:26:40;;;;;;;2.63;2.42;;;;;;;;;;5111823;28;20201;-67
2022/06/21 14:29:10;;;;;;;2.65;2.45;;;;;;;;;;5110515;28;20316;-67
2022/06/21 14:31:40;;;;;;;2.95;2.72;;;;;;;;;;5111202;28;20207;-67
2022/06/21 14:34:11;;;;;;;2.53;2.30;;;;;;;;;;5110827;28;20633;-66
2022/06/21 14:36:42;;;;;;;3.30;3.00;;;;;;;;;;5111222;28;20347;-67
2022/06/21 14:39:11;;;;;;;3.20;3.00;;;;;;;;;;5111080;28;20382;-67
2022/06/21 14:41:39;;;;;;;3.08;2.80;;;;;;;;;;5111020;28;20189;-67
2022/06/21 14:44:13;;;;;;;3.30;2.97;;;;;;;;;;5110900;28;20245;-67
2022/06/21 14:46:45;;;;;;;3.17;2.97;;;;;;;;;;5111385;28;20284;-65
2022/06/21 14:49:16;;;;;;;3.15;2.85;;;;;;;;;;5110612;28;20193;-66
2022/06/21 14:51:47;;;;;;;3.17;2.88;;;;;;;;;;5110719;28;20189;-66
2022/06/21 14:54:40;;;;;;;2.53;2.33;;;19.70;99.90;;;;;;5111384;28;20305;-66
2022/06/21 14:57:25;;;;;;;3.53;3.22;;;34.90;1.00;;;;;;5110419;28;20197;-66
2022/06/21 15:00:07;;;;;;;3.20;2.90;;;34.90;1.00;;;;;;5110529;28;20199;-66
2022/06/21 15:03:06;;;;;;;2.88;2.50;;;35.10;1.00;;;;;;5110609;28;20193;-66